sensor_id;sensor_type;location;lat;lon;timestamp;pressure;altitude;pressure_sealevel;temperature;humidity
45129;BME280;35512;56.312;101.728;2022-09-27T00:01:56;96078.47;;;0.90;92.83
45129;BME280;35512;56.312;101.728;2022-09-27T00:04:26;96078.28;;;0.87;92.55
45129;BME280;35512;56.312;101.728;2022-09-27T00:06:55;96081.72;;;0.87;92.77
45129;BME280;35512;56.312;101.728;2022-09-27T00:09:23;96094.75;;;0.89;92.66
45129;BME280;35512;56.312;101.728;2022-09-27T00:11:52;96086.28;;;0.87;92.61
45129;BME280;35512;56.312;101.728;2022-09-27T00:14:21;96084.88;;;0.89;92.50
45129;BME280;35512;56.312;101.728;2022-09-27T00:16:50;96078.31;;;0.95;92.74
45129;BME280;35512;56.312;101.728;2022-09-27T00:19:20;96080.50;;;0.93;92.63
45129;BME280;35512;56.312;101.728;2022-09-27T00:21:50;96089.63;;;1.01;92.50
45129;BME280;35512;56.312;101.728;2022-09-27T00:24:20;96088.06;;;1.09;92.26
45129;BME280;35512;56.312;101.728;2022-09-27T00:26:49;96087.78;;;1.19;92.71
45129;BME280;35512;56.312;101.728;2022-09-27T00:29:18;96090.44;;;1.28;92.96
45129;BME280;35512;56.312;101.728;2022-09-27T00:31:47;96092.97;;;1.33;92.98
45129;BME280;35512;56.312;101.728;2022-09-27T00:34:21;96099.72;;;1.39;92.61
45129;BME280;35512;56.312;101.728;2022-09-27T00:36:51;96097.53;;;1.41;92.99
45129;BME280;35512;56.312;101.728;2022-09-27T00:39:20;96081.06;;;1.30;92.74
45129;BME280;35512;56.312;101.728;2022-09-27T00:41:48;96095.50;;;1.47;92.76
45129;BME280;35512;56.312;101.728;2022-09-27T00:49:47;96110.88;;;1.59;92.52
45129;BME280;35512;56.312;101.728;2022-09-27T00:52:58;96104.75;;;1.67;92.65
45129;BME280;35512;56.312;101.728;2022-09-27T00:55:19;96101.94;;;1.72;92.85
45129;BME280;35512;56.312;101.728;2022-09-27T00:57:49;96112.91;;;1.79;92.74
45129;BME280;35512;56.312;101.728;2022-09-27T01:00:18;96099.44;;;1.84;92.82
45129;BME280;35512;56.312;101.728;2022-09-27T01:02:51;96107.59;;;1.97;92.61
45129;BME280;35512;56.312;101.728;2022-09-27T01:05:24;96105.06;;;2.09;92.67
45129;BME280;35512;56.312;101.728;2022-09-27T01:07:54;96103.03;;;2.24;92.71
45129;BME280;35512;56.312;101.728;2022-09-27T01:10:33;96096.41;;;2.39;92.79
45129;BME280;35512;56.312;101.728;2022-09-27T01:13:19;96102.03;;;2.54;93.22
45129;BME280;35512;56.312;101.728;2022-09-27T01:16:32;96111.56;;;2.64;92.75
45129;BME280;35512;56.312;101.728;2022-09-27T01:19:28;96118.63;;;2.69;92.66
45129;BME280;35512;56.312;101.728;2022-09-27T01:34:12;96129.13;;;2.74;92.56
45129;BME280;35512;56.312;101.728;2022-09-27T01:39:47;96122.03;;;2.78;92.64
45129;BME280;35512;56.312;101.728;2022-09-27T01:45:17;96126.47;;;3.04;92.55
45129;BME280;35512;56.312;101.728;2022-09-27T01:48:03;96125.97;;;3.19;92.81
45129;BME280;35512;56.312;101.728;2022-09-27T01:51:16;96134.47;;;3.43;92.71
45129;BME280;35512;56.312;101.728;2022-09-27T01:53:52;96137.75;;;3.48;92.66
45129;BME280;35512;56.312;101.728;2022-09-27T01:59:23;96131.06;;;3.63;92.05
45129;BME280;35512;56.312;101.728;2022-09-27T02:02:08;96124.41;;;3.69;92.25
45129;BME280;35512;56.312;101.728;2022-09-27T02:05:02;96127.41;;;3.68;92.65
45129;BME280;35512;56.312;101.728;2022-09-27T02:07:50;96132.97;;;3.84;92.54
45129;BME280;35512;56.312;101.728;2022-09-27T02:10:23;96128.47;;;3.97;92.67
45129;BME280;35512;56.312;101.728;2022-09-27T02:13:19;96122.19;;;3.93;92.03
45129;BME280;35512;56.312;101.728;2022-09-27T02:19:11;96127.50;;;4.01;91.83
45129;BME280;35512;56.312;101.728;2022-09-27T02:24:21;96124.59;;;4.28;91.94
45129;BME280;35512;56.312;101.728;2022-09-27T02:27:05;96123.06;;;4.39;92.27
45129;BME280;35512;56.312;101.728;2022-09-27T02:29:46;96128.22;;;4.44;91.51
45129;BME280;35512;56.312;101.728;2022-09-27T02:32:18;96126.53;;;4.39;91.13
45129;BME280;35512;56.312;101.728;2022-09-27T02:34:47;96118.38;;;4.36;91.05
45129;BME280;35512;56.312;101.728;2022-09-27T02:37:18;96126.59;;;4.52;91.26
45129;BME280;35512;56.312;101.728;2022-09-27T02:39:47;96129.06;;;4.57;91.11
45129;BME280;35512;56.312;101.728;2022-09-27T02:42:17;96135.41;;;4.65;91.28
45129;BME280;35512;56.312;101.728;2022-09-27T02:44:46;96127.31;;;4.73;91.28
45129;BME280;35512;56.312;101.728;2022-09-27T02:50:29;96126.63;;;4.77;91.01
45129;BME280;35512;56.312;101.728;2022-09-27T02:56:31;96140.16;;;4.80;90.28
45129;BME280;35512;56.312;101.728;2022-09-27T03:02:49;96139.06;;;5.06;90.73
45129;BME280;35512;56.312;101.728;2022-09-27T03:06:16;96138.25;;;4.93;90.40
45129;BME280;35512;56.312;101.728;2022-09-27T03:08:40;96150.31;;;4.99;90.67
45129;BME280;35512;56.312;101.728;2022-09-27T03:11:10;96143.19;;;4.91;90.92
45129;BME280;35512;56.312;101.728;2022-09-27T03:13:40;96147.50;;;4.83;89.92
45129;BME280;35512;56.312;101.728;2022-09-27T03:16:29;96143.78;;;4.76;90.36
45129;BME280;35512;56.312;101.728;2022-09-27T03:19:10;96152.59;;;4.64;90.01
45129;BME280;35512;56.312;101.728;2022-09-27T03:21:57;96156.91;;;4.56;90.50
45129;BME280;35512;56.312;101.728;2022-09-27T03:24:26;96160.25;;;4.53;90.50
45129;BME280;35512;56.312;101.728;2022-09-27T03:26:55;96161.16;;;4.36;89.33
45129;BME280;35512;56.312;101.728;2022-09-27T03:29:23;96154.72;;;4.16;89.78
45129;BME280;35512;56.312;101.728;2022-09-27T03:32:02;96154.53;;;4.00;89.69
45129;BME280;35512;56.312;101.728;2022-09-27T03:34:53;96164.50;;;3.91;90.22
45129;BME280;35512;56.312;101.728;2022-09-27T03:37:22;96157.47;;;3.86;90.13
45129;BME280;35512;56.312;101.728;2022-09-27T04:00:46;96155.91;;;4.61;89.42
45129;BME280;35512;56.312;101.728;2022-09-27T04:03:16;96154.94;;;4.65;88.85
45129;BME280;35512;56.312;101.728;2022-09-27T04:06:05;96146.94;;;4.78;89.72
45129;BME280;35512;56.312;101.728;2022-09-27T04:08:40;96146.59;;;4.79;89.12
45129;BME280;35512;56.312;101.728;2022-09-27T04:11:10;96154.16;;;4.77;88.67
45129;BME280;35512;56.312;101.728;2022-09-27T04:13:44;96158.88;;;4.80;88.58
45129;BME280;35512;56.312;101.728;2022-09-27T04:16:15;96158.75;;;4.77;88.84
45129;BME280;35512;56.312;101.728;2022-09-27T04:19:07;96160.47;;;4.60;88.86
45129;BME280;35512;56.312;101.728;2022-09-27T04:21:48;96159.97;;;4.46;88.64
45129;BME280;35512;56.312;101.728;2022-09-27T04:24:17;96159.41;;;4.40;88.94
45129;BME280;35512;56.312;101.728;2022-09-27T04:27:06;96154.56;;;4.33;89.38
45129;BME280;35512;56.312;101.728;2022-09-27T04:29:39;96159.81;;;4.30;88.80
45129;BME280;35512;56.312;101.728;2022-09-27T04:32:28;96150.09;;;4.25;89.17
45129;BME280;35512;56.312;101.728;2022-09-27T04:35:17;96151.78;;;4.30;89.51
45129;BME280;35512;56.312;101.728;2022-09-27T04:38:04;96146.88;;;4.32;89.35
45129;BME280;35512;56.312;101.728;2022-09-27T04:40:34;96158.03;;;4.34;89.02
45129;BME280;35512;56.312;101.728;2022-09-27T04:43:02;96156.00;;;4.31;89.31
45129;BME280;35512;56.312;101.728;2022-09-27T04:45:32;96154.84;;;4.40;89.54
45129;BME280;35512;56.312;101.728;2022-09-27T04:48:01;96156.19;;;4.47;89.70
45129;BME280;35512;56.312;101.728;2022-09-27T04:50:33;96157.44;;;4.49;89.27
45129;BME280;35512;56.312;101.728;2022-09-27T04:53:04;96163.81;;;4.57;89.49
45129;BME280;35512;56.312;101.728;2022-09-27T04:55:34;96162.50;;;4.63;89.32
45129;BME280;35512;56.312;101.728;2022-09-27T04:58:02;96158.94;;;4.71;89.47
45129;BME280;35512;56.312;101.728;2022-09-27T05:00:32;96160.84;;;4.71;89.39
45129;BME280;35512;56.312;101.728;2022-09-27T05:03:19;96169.69;;;4.84;89.72
45129;BME280;35512;56.312;101.728;2022-09-27T05:06:00;96172.16;;;4.89;89.75
45129;BME280;35512;56.312;101.728;2022-09-27T05:08:29;96172.47;;;4.87;89.40
45129;BME280;35512;56.312;101.728;2022-09-27T05:11:33;96178.16;;;4.86;89.64
45129;BME280;35512;56.312;101.728;2022-09-27T05:14:23;96173.56;;;4.74;89.84
45129;BME280;35512;56.312;101.728;2022-09-27T05:17:22;96160.63;;;4.64;89.60
45129;BME280;35512;56.312;101.728;2022-09-27T05:20:10;96173.75;;;4.69;89.08
45129;BME280;35512;56.312;101.728;2022-09-27T05:22:51;96164.25;;;4.59;89.42
45129;BME280;35512;56.312;101.728;2022-09-27T05:25:21;96175.09;;;4.63;89.82
45129;BME280;35512;56.312;101.728;2022-09-27T05:27:51;96165.97;;;4.64;90.26
45129;BME280;35512;56.312;101.728;2022-09-27T05:30:20;96173.53;;;4.62;89.96
45129;BME280;35512;56.312;101.728;2022-09-27T05:32:55;96165.59;;;4.53;90.00
45129;BME280;35512;56.312;101.728;2022-09-27T05:35:42;96169.50;;;4.55;89.79
45129;BME280;35512;56.312;101.728;2022-09-27T05:38:13;96174.94;;;4.59;89.88
45129;BME280;35512;56.312;101.728;2022-09-27T05:40:45;96164.91;;;4.56;89.95
45129;BME280;35512;56.312;101.728;2022-09-27T05:43:17;96168.38;;;4.56;88.95
45129;BME280;35512;56.312;101.728;2022-09-27T05:45:48;96154.56;;;4.54;89.94
45129;BME280;35512;56.312;101.728;2022-09-27T05:48:20;96166.59;;;4.61;89.13
45129;BME280;35512;56.312;101.728;2022-09-27T05:50:57;96167.63;;;4.68;89.44
45129;BME280;35512;56.312;101.728;2022-09-27T05:53:26;96164.72;;;4.61;89.37
45129;BME280;35512;56.312;101.728;2022-09-27T05:55:55;96170.59;;;4.54;89.18
45129;BME280;35512;56.312;101.728;2022-09-27T05:58:34;96164.22;;;4.47;88.91
45129;BME280;35512;56.312;101.728;2022-09-27T06:01:16;96171.41;;;4.34;88.74
45129;BME280;35512;56.312;101.728;2022-09-27T06:04:03;96167.41;;;4.40;89.19
45129;BME280;35512;56.312;101.728;2022-09-27T06:06:55;96161.88;;;4.45;89.13
45129;BME280;35512;56.312;101.728;2022-09-27T06:09:26;96162.78;;;4.49;90.06
45129;BME280;35512;56.312;101.728;2022-09-27T06:11:56;96167.72;;;4.60;90.23
45129;BME280;35512;56.312;101.728;2022-09-27T06:14:25;96165.88;;;4.72;89.98
45129;BME280;35512;56.312;101.728;2022-09-27T06:21:19;96159.91;;;5.00;90.04
45129;BME280;35512;56.312;101.728;2022-09-27T06:23:54;96156.66;;;4.95;89.02
45129;BME280;35512;56.312;101.728;2022-09-27T06:26:29;96156.56;;;5.03;88.98
45129;BME280;35512;56.312;101.728;2022-09-27T06:29:13;96143.75;;;4.97;88.24
45129;BME280;35512;56.312;101.728;2022-09-27T06:31:50;96153.66;;;4.96;88.12
45129;BME280;35512;56.312;101.728;2022-09-27T06:34:47;96162.47;;;4.97;88.12
45129;BME280;35512;56.312;101.728;2022-09-27T06:37:17;96157.66;;;4.90;87.57
45129;BME280;35512;56.312;101.728;2022-09-27T06:39:46;96156.88;;;4.89;88.66
45129;BME280;35512;56.312;101.728;2022-09-27T06:42:52;96165.47;;;4.95;88.71
45129;BME280;35512;56.312;101.728;2022-09-27T06:45:47;96157.34;;;5.04;89.13
45129;BME280;35512;56.312;101.728;2022-09-27T06:48:40;96149.56;;;5.23;89.14
45129;BME280;35512;56.312;101.728;2022-09-27T06:51:14;96155.50;;;5.41;88.93
45129;BME280;35512;56.312;101.728;2022-09-27T06:53:43;96147.34;;;5.50;88.96
45129;BME280;35512;56.312;101.728;2022-09-27T06:56:13;96147.34;;;5.50;88.97
45129;BME280;35512;56.312;101.728;2022-09-27T06:58:51;96149.88;;;5.47;89.06
45129;BME280;35512;56.312;101.728;2022-09-27T07:01:42;96146.66;;;5.53;88.94
45129;BME280;35512;56.312;101.728;2022-09-27T07:04:30;96148.22;;;5.54;88.60
45129;BME280;35512;56.312;101.728;2022-09-27T07:06:59;96146.44;;;5.46;88.14
45129;BME280;35512;56.312;101.728;2022-09-27T07:09:48;96138.28;;;5.42;89.00
45129;BME280;35512;56.312;101.728;2022-09-27T07:12:17;96126.38;;;5.40;88.91
45129;BME280;35512;56.312;101.728;2022-09-27T07:14:50;96134.84;;;5.42;89.05
45129;BME280;35512;56.312;101.728;2022-09-27T07:17:19;96128.03;;;5.32;88.64
45129;BME280;35512;56.312;101.728;2022-09-27T07:19:49;96132.03;;;5.26;88.57
45129;BME280;35512;56.312;101.728;2022-09-27T07:22:19;96123.03;;;5.18;88.48
45129;BME280;35512;56.312;101.728;2022-09-27T07:24:54;96124.81;;;5.14;88.97
45129;BME280;35512;56.312;101.728;2022-09-27T07:27:24;96128.47;;;5.10;88.74
45129;BME280;35512;56.312;101.728;2022-09-27T07:29:54;96121.22;;;4.98;88.57
45129;BME280;35512;56.312;101.728;2022-09-27T07:32:25;96113.75;;;4.91;88.14
45129;BME280;35512;56.312;101.728;2022-09-27T07:34:54;96112.03;;;4.86;88.30
45129;BME280;35512;56.312;101.728;2022-09-27T07:37:22;96123.41;;;4.83;88.42
45129;BME280;35512;56.312;101.728;2022-09-27T07:39:51;96120.06;;;4.86;89.35
45129;BME280;35512;56.312;101.728;2022-09-27T07:42:20;96118.19;;;4.87;89.20
45129;BME280;35512;56.312;101.728;2022-09-27T07:44:54;96107.16;;;4.88;89.08
45129;BME280;35512;56.312;101.728;2022-09-27T07:47:43;96106.94;;;4.94;89.16
45129;BME280;35512;56.312;101.728;2022-09-27T07:50:28;96110.53;;;4.98;88.48
45129;BME280;35512;56.312;101.728;2022-09-27T07:53:03;96107.25;;;4.92;88.62
45129;BME280;35512;56.312;101.728;2022-09-27T07:55:41;96100.47;;;4.95;88.95
45129;BME280;35512;56.312;101.728;2022-09-27T07:58:13;96099.34;;;5.08;89.01
45129;BME280;35512;56.312;101.728;2022-09-27T08:00:42;96097.16;;;5.10;87.77
45129;BME280;35512;56.312;101.728;2022-09-27T08:03:16;96098.03;;;5.02;87.97
45129;BME280;35512;56.312;101.728;2022-09-27T08:05:47;96090.00;;;5.02;88.19
45129;BME280;35512;56.312;101.728;2022-09-27T08:08:16;96085.41;;;5.02;88.50
45129;BME280;35512;56.312;101.728;2022-09-27T08:10:48;96091.44;;;5.12;88.05
45129;BME280;35512;56.312;101.728;2022-09-27T08:13:18;96084.09;;;5.08;89.01
45129;BME280;35512;56.312;101.728;2022-09-27T08:15:50;96088.53;;;5.04;88.19
45129;BME280;35512;56.312;101.728;2022-09-27T08:18:21;96086.88;;;5.00;88.85
45129;BME280;35512;56.312;101.728;2022-09-27T08:20:58;96089.66;;;4.91;88.29
45129;BME280;35512;56.312;101.728;2022-09-27T08:24:02;96087.06;;;4.82;88.34
45129;BME280;35512;56.312;101.728;2022-09-27T08:26:51;96086.84;;;4.75;88.01
45129;BME280;35512;56.312;101.728;2022-09-27T08:29:30;96085.06;;;4.67;88.15
45129;BME280;35512;56.312;101.728;2022-09-27T08:31:59;96086.63;;;4.68;88.09
45129;BME280;35512;56.312;101.728;2022-09-27T08:34:28;96073.31;;;4.59;88.07
45129;BME280;35512;56.312;101.728;2022-09-27T08:36:57;96087.50;;;4.60;88.22
45129;BME280;35512;56.312;101.728;2022-09-27T08:39:26;96077.88;;;4.46;87.68
45129;BME280;35512;56.312;101.728;2022-09-27T08:47:52;96082.91;;;4.48;88.66
45129;BME280;35512;56.312;101.728;2022-09-27T08:50:27;96072.56;;;4.59;88.64
45129;BME280;35512;56.312;101.728;2022-09-27T08:55:58;96083.63;;;4.82;88.95
45129;BME280;35512;56.312;101.728;2022-09-27T08:58:36;96074.94;;;4.85;88.36
45129;BME280;35512;56.312;101.728;2022-09-27T09:01:17;96065.91;;;4.89;88.79
45129;BME280;35512;56.312;101.728;2022-09-27T09:04:00;96076.72;;;5.05;89.03
45129;BME280;35512;56.312;101.728;2022-09-27T09:12:40;96068.69;;;4.93;88.20
45129;BME280;35512;56.312;101.728;2022-09-27T09:22:18;96066.00;;;4.81;88.80
45129;BME280;35512;56.312;101.728;2022-09-27T09:27:40;96054.06;;;4.66;87.41
45129;BME280;35512;56.312;101.728;2022-09-27T09:30:22;96055.28;;;4.56;88.05
45129;BME280;35512;56.312;101.728;2022-09-27T09:36:30;96051.25;;;4.50;88.41
45129;BME280;35512;56.312;101.728;2022-09-27T09:40:02;96054.16;;;4.45;87.90
45129;BME280;35512;56.312;101.728;2022-09-27T09:50:04;96043.41;;;4.20;87.48
45129;BME280;35512;56.312;101.728;2022-09-27T09:52:43;96048.50;;;4.25;87.38
45129;BME280;35512;56.312;101.728;2022-09-27T09:55:27;96045.19;;;4.28;87.61
45129;BME280;35512;56.312;101.728;2022-09-27T10:01:21;96046.81;;;4.08;86.94
45129;BME280;35512;56.312;101.728;2022-09-27T10:03:56;96045.91;;;4.04;86.78
45129;BME280;35512;56.312;101.728;2022-09-27T10:06:25;96033.28;;;3.92;86.43
45129;BME280;35512;56.312;101.728;2022-09-27T10:08:57;96041.75;;;3.94;86.99
45129;BME280;35512;56.312;101.728;2022-09-27T10:11:44;96046.19;;;3.90;86.78
45129;BME280;35512;56.312;101.728;2022-09-27T10:14:22;96052.63;;;3.89;86.45
45129;BME280;35512;56.312;101.728;2022-09-27T10:16:59;96038.69;;;3.83;86.98
45129;BME280;35512;56.312;101.728;2022-09-27T10:19:32;96045.91;;;3.83;86.95
45129;BME280;35512;56.312;101.728;2022-09-27T10:22:29;96040.47;;;3.79;87.31
45129;BME280;35512;56.312;101.728;2022-09-27T10:25:09;96048.91;;;3.81;87.47
45129;BME280;35512;56.312;101.728;2022-09-27T10:28:01;96042.00;;;3.80;87.58
45129;BME280;35512;56.312;101.728;2022-09-27T10:30:36;96040.31;;;3.76;87.67
45129;BME280;35512;56.312;101.728;2022-09-27T10:33:15;96034.97;;;3.76;88.29
45129;BME280;35512;56.312;101.728;2022-09-27T10:36:00;96032.16;;;3.72;88.38
45129;BME280;35512;56.312;101.728;2022-09-27T10:38:35;96032.06;;;3.68;87.90
45129;BME280;35512;56.312;101.728;2022-09-27T10:41:35;96026.44;;;3.61;87.85
45129;BME280;35512;56.312;101.728;2022-09-27T10:46:48;96021.56;;;3.63;87.62
45129;BME280;35512;56.312;101.728;2022-09-27T10:49:40;96023.00;;;3.61;87.57
45129;BME280;35512;56.312;101.728;2022-09-27T10:52:28;96021.00;;;3.58;87.84
45129;BME280;35512;56.312;101.728;2022-09-27T10:57:27;96013.38;;;3.47;87.95
45129;BME280;35512;56.312;101.728;2022-09-27T11:00:05;96011.22;;;3.41;88.08
45129;BME280;35512;56.312;101.728;2022-09-27T11:02:37;96003.28;;;3.32;88.17
45129;BME280;35512;56.312;101.728;2022-09-27T11:07:57;96015.56;;;3.24;88.48
45129;BME280;35512;56.312;101.728;2022-09-27T11:11:15;96014.81;;;3.24;88.48
45129;BME280;35512;56.312;101.728;2022-09-27T11:14:23;96016.88;;;3.18;88.46
45129;BME280;35512;56.312;101.728;2022-09-27T11:17:15;96001.81;;;3.13;88.66
45129;BME280;35512;56.312;101.728;2022-09-27T11:19:55;96002.03;;;3.08;88.96
45129;BME280;35512;56.312;101.728;2022-09-27T11:25:58;96001.41;;;3.02;89.17
45129;BME280;35512;56.312;101.728;2022-09-27T11:28:58;96006.63;;;2.99;88.76
45129;BME280;35512;56.312;101.728;2022-09-27T11:38:16;96015.50;;;2.82;88.19
45129;BME280;35512;56.312;101.728;2022-09-27T11:50:42;96018.03;;;2.40;88.58
45129;BME280;35512;56.312;101.728;2022-09-27T11:53:47;96029.66;;;2.26;88.39
45129;BME280;35512;56.312;101.728;2022-09-27T11:56:39;96028.91;;;2.17;88.70
45129;BME280;35512;56.312;101.728;2022-09-27T12:10:50;96032.41;;;1.91;89.02
45129;BME280;35512;56.312;101.728;2022-09-27T12:13:47;96057.31;;;1.95;88.84
45129;BME280;35512;56.312;101.728;2022-09-27T12:16:39;96046.50;;;1.92;88.75
45129;BME280;35512;56.312;101.728;2022-09-27T12:19:19;96055.28;;;1.83;88.91
45129;BME280;35512;56.312;101.728;2022-09-27T12:22:03;96049.97;;;1.75;88.52
45129;BME280;35512;56.312;101.728;2022-09-27T12:24:37;96048.38;;;1.65;88.48
45129;BME280;35512;56.312;101.728;2022-09-27T12:30:38;96043.06;;;1.56;88.26
45129;BME280;35512;56.312;101.728;2022-09-27T12:33:27;96052.44;;;1.54;87.59
45129;BME280;35512;56.312;101.728;2022-09-27T12:36:23;96039.78;;;1.50;87.75
45129;BME280;35512;56.312;101.728;2022-09-27T12:39:05;96056.19;;;1.52;87.80
45129;BME280;35512;56.312;101.728;2022-09-27T12:41:47;96044.94;;;1.47;87.73
45129;BME280;35512;56.312;101.728;2022-09-27T12:44:50;96044.31;;;1.41;88.06
45129;BME280;35512;56.312;101.728;2022-09-27T12:47:59;96044.13;;;1.38;88.19
45129;BME280;35512;56.312;101.728;2022-09-27T12:53:19;96041.16;;;1.30;88.44
45129;BME280;35512;56.312;101.728;2022-09-27T13:02:52;96026.56;;;1.10;88.64
45129;BME280;35512;56.312;101.728;2022-09-27T13:12:00;96005.59;;;1.00;88.70
45129;BME280;35512;56.312;101.728;2022-09-27T13:14:34;95993.22;;;0.95;89.04
45129;BME280;35512;56.312;101.728;2022-09-27T13:20:41;95986.34;;;0.86;88.73
45129;BME280;35512;56.312;101.728;2022-09-27T13:23:53;95989.94;;;0.90;88.94
45129;BME280;35512;56.312;101.728;2022-09-27T13:26:44;95989.16;;;0.89;88.61
45129;BME280;35512;56.312;101.728;2022-09-27T13:29:24;95992.00;;;0.93;88.80
45129;BME280;35512;56.312;101.728;2022-09-27T13:40:47;95988.84;;;0.82;88.58
45129;BME280;35512;56.312;101.728;2022-09-27T13:43:20;95987.28;;;0.81;89.04
45129;BME280;35512;56.312;101.728;2022-09-27T13:46:06;95979.13;;;0.77;89.02
45129;BME280;35512;56.312;101.728;2022-09-27T13:49:17;95982.88;;;0.76;88.66
45129;BME280;35512;56.312;101.728;2022-09-27T13:54:52;95976.78;;;0.76;88.97
45129;BME280;35512;56.312;101.728;2022-09-27T13:57:51;95978.97;;;0.74;88.90
45129;BME280;35512;56.312;101.728;2022-09-27T14:00:38;95957.69;;;0.65;88.51
45129;BME280;35512;56.312;101.728;2022-09-27T14:06:46;95959.88;;;0.72;89.05
45129;BME280;35512;56.312;101.728;2022-09-27T14:09:24;95943.00;;;0.67;88.67
45129;BME280;35512;56.312;101.728;2022-09-27T14:12:38;95940.34;;;0.67;88.59
45129;BME280;35512;56.312;101.728;2022-09-27T14:15:58;95936.72;;;0.63;88.73
45129;BME280;35512;56.312;101.728;2022-09-27T14:19:20;95933.59;;;0.61;88.59
45129;BME280;35512;56.312;101.728;2022-09-27T14:21:54;95923.91;;;0.57;88.80
45129;BME280;35512;56.312;101.728;2022-09-27T14:27:39;95916.38;;;0.50;88.95
45129;BME280;35512;56.312;101.728;2022-09-27T14:30:28;95917.94;;;0.51;88.81
45129;BME280;35512;56.312;101.728;2022-09-27T14:33:30;95920.59;;;0.51;88.52
45129;BME280;35512;56.312;101.728;2022-09-27T14:36:06;95911.38;;;0.48;89.22
45129;BME280;35512;56.312;101.728;2022-09-27T14:42:02;95903.09;;;0.41;89.39
45129;BME280;35512;56.312;101.728;2022-09-27T14:44:33;95917.63;;;0.44;89.09
45129;BME280;35512;56.312;101.728;2022-09-27T14:47:23;95914.50;;;0.42;88.66
45129;BME280;35512;56.312;101.728;2022-09-27T14:50:17;95915.25;;;0.42;88.99
45129;BME280;35512;56.312;101.728;2022-09-27T14:52:47;95914.03;;;0.40;88.64
45129;BME280;35512;56.312;101.728;2022-09-27T14:55:23;95914.97;;;0.44;88.92
45129;BME280;35512;56.312;101.728;2022-09-27T14:57:57;95910.13;;;0.46;89.33
45129;BME280;35512;56.312;101.728;2022-09-27T15:00:30;95898.22;;;0.43;88.80
45129;BME280;35512;56.312;101.728;2022-09-27T15:03:02;95902.47;;;0.44;88.80
45129;BME280;35512;56.312;101.728;2022-09-27T15:05:34;95908.09;;;0.43;88.35
45129;BME280;35512;56.312;101.728;2022-09-27T15:08:04;95902.47;;;0.44;88.79
45129;BME280;35512;56.312;101.728;2022-09-27T15:10:34;95892.31;;;0.46;88.84
45129;BME280;35512;56.312;101.728;2022-09-27T15:13:04;95886.03;;;0.42;88.82
45129;BME280;35512;56.312;101.728;2022-09-27T15:15:35;95884.19;;;0.43;89.04
45129;BME280;35512;56.312;101.728;2022-09-27T15:20:59;95868.22;;;0.34;88.84
45129;BME280;35512;56.312;101.728;2022-09-27T15:23:38;95869.00;;;0.35;88.74
45129;BME280;35512;56.312;101.728;2022-09-27T15:28:49;95866.34;;;0.35;88.96
45129;BME280;35512;56.312;101.728;2022-09-27T15:31:33;95866.50;;;0.38;89.25
45129;BME280;35512;56.312;101.728;2022-09-27T15:34:04;95871.22;;;0.41;89.48
45129;BME280;35512;56.312;101.728;2022-09-27T15:36:52;95878.56;;;0.44;89.43
45129;BME280;35512;56.312;101.728;2022-09-27T15:42:08;95868.41;;;0.46;89.15
45129;BME280;35512;56.312;101.728;2022-09-27T15:44:51;95869.34;;;0.50;88.84
45129;BME280;35512;56.312;101.728;2022-09-27T15:52:46;95859.19;;;0.53;89.33
45129;BME280;35512;56.312;101.728;2022-09-27T15:55:19;95840.59;;;0.53;88.90
45129;BME280;35512;56.312;101.728;2022-09-27T15:57:59;95849.34;;;0.53;88.44
45129;BME280;35512;56.312;101.728;2022-09-27T16:00:30;95831.03;;;0.52;88.90
45129;BME280;35512;56.312;101.728;2022-09-27T16:02:59;95822.63;;;0.49;88.60
45129;BME280;35512;56.312;101.728;2022-09-27T16:05:28;95818.56;;;0.52;88.95
45129;BME280;35512;56.312;101.728;2022-09-27T16:07:57;95810.75;;;0.47;88.69
45129;BME280;35512;56.312;101.728;2022-09-27T16:10:33;95818.06;;;0.50;88.41
45129;BME280;35512;56.312;101.728;2022-09-27T16:13:04;95813.25;;;0.52;88.81
45129;BME280;35512;56.312;101.728;2022-09-27T16:15:33;95811.69;;;0.51;88.98
45129;BME280;35512;56.312;101.728;2022-09-27T16:18:02;95820.41;;;0.52;88.43
45129;BME280;35512;56.312;101.728;2022-09-27T16:20:31;95813.09;;;0.48;88.99
45129;BME280;35512;56.312;101.728;2022-09-27T16:23:00;95805.25;;;0.43;88.77
45129;BME280;35512;56.312;101.728;2022-09-27T16:25:29;95808.84;;;0.47;89.08
45129;BME280;35512;56.312;101.728;2022-09-27T16:27:59;95812.94;;;0.54;88.79
45129;BME280;35512;56.312;101.728;2022-09-27T16:30:28;95806.34;;;0.60;88.91
45129;BME280;35512;56.312;101.728;2022-09-27T16:32:57;95808.41;;;0.72;89.49
45129;BME280;35512;56.312;101.728;2022-09-27T16:35:26;95799.47;;;0.76;89.13
45129;BME280;35512;56.312;101.728;2022-09-27T16:37:55;95803.22;;;0.84;88.89
45129;BME280;35512;56.312;101.728;2022-09-27T16:40:25;95776.50;;;0.72;89.26
45129;BME280;35512;56.312;101.728;2022-09-27T16:42:55;95786.97;;;0.86;88.59
45129;BME280;35512;56.312;101.728;2022-09-27T16:45:24;95766.66;;;0.81;88.58
45129;BME280;35512;56.312;101.728;2022-09-27T16:47:58;95759.00;;;0.79;88.42
45129;BME280;35512;56.312;101.728;2022-09-27T16:50:28;95754.00;;;0.78;88.68
45129;BME280;35512;56.312;101.728;2022-09-27T16:53:15;95743.38;;;0.69;88.22
45129;BME280;35512;56.312;101.728;2022-09-27T16:55:44;95744.00;;;0.57;88.32
45129;BME280;35512;56.312;101.728;2022-09-27T16:58:13;95731.22;;;0.50;88.43
45129;BME280;35512;56.312;101.728;2022-09-27T17:00:42;95733.22;;;0.45;88.03
45129;BME280;35512;56.312;101.728;2022-09-27T17:03:11;95732.94;;;0.46;87.99
45129;BME280;35512;56.312;101.728;2022-09-27T17:05:40;95735.88;;;0.45;88.58
45129;BME280;35512;56.312;101.728;2022-09-27T17:08:08;95725.88;;;0.50;88.67
45129;BME280;35512;56.312;101.728;2022-09-27T17:10:43;95712.59;;;0.50;88.47
45129;BME280;35512;56.312;101.728;2022-09-27T17:13:12;95706.19;;;0.60;88.20